Metar Cercanos

 

LEPA - Palma De Mallorc, Spain
Distance from station: ONO 38km
Actualización: 16/08/2018 19:00
Parcialmente nuboso
Parcialmente nuboso
 Viento del ONO
Viento: ONO 13 km/h
Temperatura: 29°C
Indice Calor: 31°C
Rocío: 21°C
Humedad: 62%
Barómetro: 1014 hPa
Clouds: Parcialmente nuboso
Visibility: 10 km
Cloud details: Few Clouds 762 m
Parcialmente nuboso 1219 m
2018/08/16 17:00 LEPA 161700Z 30007KT 270V020 9999 FEW025 SCT040 29/21 Q1014 NOSIG
LEMH - Mahon/Menorca Is, Spain
Distance from station: ENE 105km
Actualización: 16/08/2018 19:00
Few Clouds
Few Clouds
 Viento del ENE
Viento: ENE 11 km/h
Temperatura: 27°C
Indice Calor: 29°C
Rocío: 20°C
Humedad: 66%
Barómetro: 1014 hPa
Clouds: Few Clouds
Visibility: 10 km
Cloud details: Few Clouds 762 m
2018/08/16 17:00 LEMH 161700Z 06006KT 020V100 9999 FEW025 27/20 Q1014
 
LEIB - Ibiza/Es Codola, Spain
Distance from station: OSO 165km
Actualización: 16/08/2018 19:00
Few Clouds
Few Clouds
 Viento del ESE
Viento: ESE 11 km/h
Temperatura: 29°C
Indice Calor: 31°C
Rocío: 20°C
Humedad: 58%
Barómetro: 1014 hPa
Clouds: Few Clouds
Visibility: 10 km
Cloud details: Few Clouds 762 m
2018/08/16 17:00 LEIB 161700Z 11006KT 060V160 9999 FEW025 29/20 Q1014 NOSIG
LEBL - Barcelona Airpor, Spain
Distance from station: NNO 225km
Actualización: 16/08/2018 19:00
Few Clouds
Few Clouds
 Viento del SSO
Viento: SSO 19 km/h
Temperatura: 28°C
Indice Calor: 30°C
Rocío: 22°C
Humedad: 70%
Barómetro: 1013 hPa
Clouds: Few Clouds
Visibility: 10 km
Cloud details: Few Clouds 914 m
2018/08/16 17:00 LEBL 161700Z 21010KT 9999 FEW030CB 28/22 Q1013 NOSIG
 
LEVC - Valencia (civ/Mi, Spain
Distance from station: NO 188km
Actualización: 16/08/2018 19:00
Few Clouds
Few Clouds
 Viento del SE
Viento: SE 13 km/h
Temperatura: 29°C
Indice Calor: 30°C
Rocío: 19°C
Humedad: 55%
Barómetro: 1013 hPa
Clouds: Few Clouds
Visibility: 10 km
Cloud details: Few Clouds 1219 m
2018/08/16 17:00 LEVC 161700Z 14007KT 100V170 9999 FEW040 29/19 Q1013 NOSIG
LEGE - Gerona/Costa Bra, Spain
Distance from station: N 276km
Actualización: 16/08/2018 19:00
Parcialmente nuboso
Parcialmente nuboso
 Viento del S
Viento: S 24 km/h
Temperatura: 27°C
Indice Calor: 28°C
Rocío: 19°C
Humedad: 62%
Barómetro: 1014 hPa
Clouds: Parcialmente nuboso
Visibility: 10 km
Cloud details: Few Clouds 914 m
Parcialmente nuboso 1829 m
2018/08/16 17:00 LEGE 161700Z 19013KT 9999 FEW030TCU SCT060 27/19 Q1014
 
LEAL - Alicante/El Alte, Spain
Distance from station: OSO 344km
Actualización: 16/08/2018 19:00
Parcialmente nuboso
Parcialmente nuboso
 Viento del varies
Viento: varies 4 km/h
Temperatura: 25°C
Rocío: 19°C
Humedad: 69%
Barómetro: 1014 hPa
Clouds: Parcialmente nuboso
Visibility: 10 km
Cloud details: Few Clouds 1981 m
Parcialmente nuboso 2073 m
2018/08/16 17:00 LEAL 161700Z VRB02KT 9999 FEW065 SCT068 25/19 Q1014 NOSIG
LEAM - Almeria Airport, Spain
Distance from station: SSO 56km
Actualización: 16/08/2018 19:00
Few Clouds
Few Clouds
 Viento del SSO
Viento: SSO 13 km/h
Temperatura: 28°C
Indice Calor: 30°C
Rocío: 22°C
Humedad: 70%
Barómetro: 1015 hPa
Clouds: Few Clouds
Visibility: 10 km
Cloud details: Few Clouds 1372 m
2018/08/16 17:00 LEAM 161700Z 21007KT 160V250 9999 FEW045TCU 28/22 Q1015
 
LEZG - Zaragoza (mil/Ci, Spain
Distance from station: NO 431km
Actualización: 16/08/2018 19:00
Nearby thunderstorm, Parcialmente nuboso
Nearby thunderstorm, Parcialmente nuboso
 Viento del NO
Viento: NO 22 km/h
Temperatura: 30°C
Indice Calor: 31°C
Rocío: 18°C
Humedad: 49%
Barómetro: 1012 hPa
Resumen: Nearby Thunderstorm
Clouds: Parcialmente nuboso
Visibility: 10 km
Cloud details: Parcialmente nuboso 1219 m
Parcialmente nuboso 2438 m
2018/08/16 17:00 LEZG 161700Z 32012KT 290V350 9999 VCTS SCT040CB SCT080 30/18 Q1012
LEMD - Madrid/Barajas, Spain
Distance from station: ONO 234km
Actualización: 16/08/2018 19:00
Few Clouds
Few Clouds
 Viento del S
Viento: S 33 km/h
Temperatura: 30°C
Rocío: 13°C
Humedad: 35%
Barómetro: 1014 hPa
Clouds: Few Clouds
Visibility: 10 km
Cloud details: Few Clouds 1219 m
2018/08/16 17:00 LEMD 161700Z 17018KT 9999 FEW040CB 30/13 Q1014 NOSIG
 
LEGR - Granada Airport, Spain
Distance from station: OSO 62km
Actualización: 16/08/2018 19:00
Muy nuboso
Muy nuboso
 Viento del NE
Viento: NE 7 km/h
Temperatura: 23°C
Rocío: 14°C
Humedad: 57%
Barómetro: 1017 hPa
Clouds: Muy nuboso
Visibility: 10 km
Cloud details: Parcialmente nuboso 1219 m
Muy nuboso 1829 m
2018/08/16 17:00 LEGR 161700Z 04004KT 340V080 9999 SCT040 BKN060 23/14 Q1017
LEMG - Malaga (civ/Mil), Spain
Distance from station: OSO 227km
Actualización: 16/08/2018 19:00
Few Clouds
Few Clouds
 Viento del SE
Viento: SE 15 km/h
Temperatura: 28°C
Indice Calor: 29°C
Rocío: 19°C
Humedad: 58%
Barómetro: 1014 hPa
Clouds: Few Clouds
Visibility: 10 km
Cloud details: Few Clouds 1219 m
2018/08/16 17:00 LEMG 161700Z 13008KT 090V150 9999 FEW040TCU 28/19 Q1014 NOSIG
 
LEZL - Sevilla (civ/Mil, Spain
Distance from station: S 318km
Actualización: 16/08/2018 19:00
Despejado
Despejado
 Viento del SO
Viento: SO 22 km/h
Temperatura: 29°C
Indice Calor: 29°C
Rocío: 16°C
Humedad: 45%
Barómetro: 1014 hPa
Resumen: Despejado
Visibility: greater than 10 km
2018/08/16 17:00 LEZL 161700Z 22012KT CAVOK 29/16 Q1014 NOSIG
LEVT - Vitoria, Spain
Distance from station: NO 226km
Actualización: 16/08/2018 19:00
Few Clouds
Few Clouds
 Viento del NNE
Viento: NNE 22 km/h
Temperatura: 22°C
Rocío: 17°C
Humedad: 73%
Barómetro: 1018 hPa
Clouds: Few Clouds
Visibility: 10 km
Cloud details: Few Clouds 823 m
2018/08/16 17:00 LEVT 161700Z 02012KT 9999 FEW027 22/17 Q1018
 
LEBB - Bilbao/Sondica, Spain
Distance from station: NNO 235km
Actualización: 16/08/2018 19:00
Lluvia débil, Muy nuboso
Lluvia débil, Muy nuboso
 Viento del NNO
Viento: NNO 13 km/h
Temperatura: 22°C
Rocío: 20°C
Humedad: 88%
Barómetro: 1018 hPa
Resumen: Lluvia débil
Clouds: Muy nuboso
Visibility: 7 km
Cloud details: Few Clouds 335 m
Parcialmente nuboso 610 m
Muy nuboso 914 m
2018/08/16 17:00 LEBB 161700Z 34007KT 300V020 7000 -RA FEW011 SCT020 BKN030 22/20 Q1018 NOSIG
LESO - San Sebastian/Fu, Spain
Distance from station: N 231km
Actualización: 16/08/2018 19:00
Muy nuboso
Muy nuboso
 Viento del N
Viento: N 13 km/h
Temperatura: 23°C
Rocío: 20°C
Humedad: 83%
Barómetro: 1017 hPa
Clouds: Muy nuboso
Visibility: 9 km
Cloud details: Parcialmente nuboso 396 m
Parcialmente nuboso 457 m
Muy nuboso 732 m
2018/08/16 17:00 LESO 161700Z 35007KT 290V040 9000 SCT013 SCT015 BKN024 23/20 Q1017
 
LEVD - Valladolid(Mil/C, Spain
Distance from station: ONO 239km
Actualización: 16/08/2018 19:00
Parcialmente nuboso
Parcialmente nuboso
 Viento del NNO
Viento: NNO 6 km/h
Temperatura: 31°C
Rocío: 7°C
Humedad: 22%
Barómetro: 1016 hPa
Clouds: Parcialmente nuboso
Visibility: 10 km
Cloud details: Parcialmente nuboso 1372 m
2018/08/16 17:00 LEVD 161700Z 33003KT 230V030 9999 SCT045 31/07 Q1016
LESA - Salamanca (civ/M, Spain
Distance from station: ONO 349km
Actualización: 16/08/2018 19:00
Few Clouds
Few Clouds
 Viento del NO
Viento: NO 9 km/h
Temperatura: 32°C
Rocío: 9°C
Humedad: 24%
Barómetro: 1015 hPa
Clouds: Few Clouds
Visibility: 10 km
Cloud details: Few Clouds 1067 m
2018/08/16 17:00 LESA 161700Z 31005KT 270V340 9999 FEW035 32/09 Q1015
 
LEXJ - Santander/Paraya, Spain
Distance from station: NNO 247km
Actualización: 16/08/2018 19:00
Muy nuboso
Muy nuboso
 Viento del NNO
Viento: NNO 11 km/h
Temperatura: 22°C
Rocío: 18°C
Humedad: 78%
Barómetro: 1019 hPa
Clouds: Muy nuboso
Visibility: 10 km
Cloud details: Parcialmente nuboso 610 m
Muy nuboso 1280 m
2018/08/16 17:00 LEXJ 161700Z 34006KT 290V020 9999 SCT020 BKN042 22/18 Q1019
LEAS - Asturias/Aviles, Spain
Distance from station: NO 214km
Actualización: 16/08/2018 19:00
Parcialmente nuboso
Parcialmente nuboso
 Viento del NNO
Viento: NNO 6 km/h
Temperatura: 21°C
Rocío: 17°C
Humedad: 78%
Barómetro: 1020 hPa
Clouds: Parcialmente nuboso
Visibility: 10 km
Cloud details: Few Clouds 488 m
Parcialmente nuboso 1006 m
2018/08/16 17:00 LEAS 161700Z 34003KT 270V060 9999 FEW016 SCT033 21/17 Q1020 NOSIG
 
LECO - La Coruna/Alvedr, Spain
Distance from station: ONO 222km
Actualización: 16/08/2018 19:00
Muy nuboso
Muy nuboso
 Viento del N
Viento: N 22 km/h, Racha: 41 km/h
Temperatura: 19°C
Rocío: 18°C
Humedad: 94%
Barómetro: 1021 hPa
Clouds: Muy nuboso
Visibility: 10 km
Cloud details: Muy nuboso 152 m
Muy nuboso 640 m
2018/08/16 17:00 LECO 161700Z 36012G22KT 320V050 9999 BKN005 BKN021 19/18 Q1021 NOSIG
LEVX - Vigo/Peinador, Spain
Distance from station: O 214km
Actualización: 16/08/2018 19:00
Few Clouds
Few Clouds
 Viento del N
Viento: N 24 km/h
Temperatura: 25°C
Rocío: 17°C
Humedad: 61%
Barómetro: 1018 hPa
Clouds: Few Clouds
Visibility: 10 km
Cloud details: Few Clouds 762 m
2018/08/16 17:00 LEVX 161700Z 36013KT 330V060 9999 FEW025 25/17 Q1018 NOSIG